Atlanta, Kansas
Current Conditions -  °F | °C
As of 2:35 PM on Monday 24 Nov 2014 (Local Time) from KEQA Reporting Station
Clear Clear  
Wind Chill: 50°   Ceiling: Unl
Heat Index: 50°   Visibility: 10mi
Dew Point: 21°   Wind: 17mph
Humidity: 32%   Direction: 310°NW
Pressure: 29.89"   Gusts: 26mph
Location:  37.44°N, 96.76°W
Report Text: KEQA 242035Z AUTO 31015G23KT 10SM CLR 10/M06 A2989 RMK AO2
Loading
Personal Weather Stations






























Interactive Weather Map New forecast layout! Learn more

10-Day Weather Forecast

Advertisements
Track Severe Weather on mobile